Time;durP1;ratioP1;P1;durP2;ratioP2;P2;SDS_P1;SDS_P2;PMS_P1;PMS_P2;Temp;Humidity;BMP_temperature;BMP_pressure;BME280_temperature;BME280_humidity;BME280_pressure;Samples;Min_cycle;Max_cycle;Signal;HPM_P1;HPM_P2
2023/01/23 00:01:26;;;;;;;;;;;;;;;;;;10295285;28;19994;-70
2023/01/23 00:06:25;;;;;;;;;;;;;;;;;;10296492;28;20314;-70
2023/01/23 00:11:23;;;;;;;;;;;;;;;;;;10295221;28;20338;-71
2023/01/23 00:16:20;;;;;;;;;;;;;;;;;;10292778;28;19963;-70
2023/01/23 00:21:18;;;;;;;;;;;;;;;;;;10294706;28;20035;-70
2023/01/23 00:26:16;;;;;;;;;;;;;;;;;;10295609;28;20322;-71
2023/01/23 00:31:14;;;;;;;;;;;;;;;;;;10294672;28;19975;-70
2023/01/23 00:36:12;;;;;;;;;;;;;;;;;;10291842;28;19970;-71
2023/01/23 00:41:11;;;;;;;;;;;;;;;;;;10294454;28;19952;-71
2023/01/23 00:46:09;;;;;;;;;;;;;;;;;;10293859;28;19928;-71
2023/01/23 00:51:08;;;;;;;;;;;;;;;;;;10294806;28;19959;-70
2023/01/23 00:56:06;;;;;;;;;;;;;;;;;;10292671;28;19956;-71
2023/01/23 01:01:04;;;;;;;;;;;;;;;;;;10291754;28;20404;-71
2023/01/23 01:06:02;;;;;;;;;;;;;;;;;;10299161;28;19924;-71
2023/01/23 01:11:00;;;;;;;;;;;;;;;;;;10292093;28;19952;-71
2023/01/23 01:16:00;;;;;;;;;;;;;;;;;;10294118;28;19971;-71
2023/01/23 01:20:58;;;;;;;;;;;;;;;;;;10275305;28;19964;-70
2023/01/23 01:25:56;;;;;;;;;;;;;;;;;;10292153;28;20342;-71
2023/01/23 01:30:54;;;;;;;;;;;;;;;;;;10292682;28;19967;-71
2023/01/23 01:35:55;;;;;;;;;;;;;;;;;;10289763;28;19963;-71
2023/01/23 01:40:52;;;;;;;;;;;;;;;;;;10291182;28;19972;-71
2023/01/23 01:45:50;;;;;;;;;;;;;;;;;;10291071;28;20409;-71
2023/01/23 01:50:48;;;;;;;;;;;;;;;;;;10291182;28;19963;-71
2023/01/23 01:55:46;;;;;;;;;;;;;;;;;;10298682;28;20361;-71
2023/01/23 02:00:44;;;;;;;;;;;;;;;;;;10290988;28;19962;-70
2023/01/23 02:05:42;;;;;;;;;;;;;;;;;;10291619;28;19959;-71
2023/01/23 02:10:40;;;;;;;;;;;;;;;;;;10289269;28;20409;-70
2023/01/23 02:15:38;;;;;;;;;;;;;;;;;;10290022;28;19959;-70
2023/01/23 02:20:35;;;;;;;;;;;;;;;;;;10288996;28;20617;-70
2023/01/23 02:25:33;;;;;;;;;;;;;;;;;;10288398;28;19989;-71
2023/01/23 02:30:32;;;;;;;;;;;;;;;;;;10297087;28;19964;-72
2023/01/23 02:35:30;;;;;;;;;;;;;;;;;;10288226;28;19928;-71
2023/01/23 02:40:35;;;;;;;;;;;;;;;;;;10288343;28;20405;-71
2023/01/23 02:45:34;;;;;;;;;;;;;;;;;;10290140;28;19953;-71
2023/01/23 02:50:32;;;;;;;;;;;;;;;;;;10290414;28;19920;-72
2023/01/23 02:55:32;;;;;;;;;;;;;;;;;;10286940;28;19988;-71
2023/01/23 03:00:29;;;;;;;;;;;;;;;;;;10296882;28;19983;-71
2023/01/23 03:05:27;;;;;;;;;;;;;;;;;;10292485;28;19968;-70
2023/01/23 03:10:25;;;;;;;;;;;;;;;;;;10296728;28;19963;-71
2023/01/23 03:15:25;;;;;;;;;;;;;;;;;;10287183;28;19960;-71
2023/01/23 03:20:23;;;;;;;;;;;;;;;;;;10304062;28;19956;-71
2023/01/23 03:25:21;;;;;;;;;;;;;;;;;;10303877;28;19959;-70
2023/01/23 03:30:20;;;;;;;;;;;;;;;;;;10296816;28;19928;-72
2023/01/23 03:35:20;;;;;;;;;;;;;;;;;;10291881;28;20377;-71
2023/01/23 03:45:36;;;;;;;;;;;;;;;;;;10297514;28;20073;-70
2023/01/23 03:50:34;;;;;;;;;;;;;;;;;;10301797;28;19968;-71
2023/01/23 03:55:32;;;;;;;;;;;;;;;;;;10296736;28;19963;-69
2023/01/23 04:00:30;;;;;;;;;;;;;;;;;;10293276;28;20984;-70
2023/01/23 04:05:35;;;;;;;;;;;;;;;;;;10292344;28;20375;-70
2023/01/23 04:10:33;;;;;;;;;;;;;;;;;;10293895;28;19967;-69
2023/01/23 04:15:34;;;;;;;;;;;;;;;;;;10293420;28;20384;-69
2023/01/23 04:20:35;;;;;;;;;;;;;;;;;;10291272;28;20408;-69
2023/01/23 04:25:33;;;;;;;;;;;;;;;;;;10302328;28;19997;-70
2023/01/23 04:30:33;;;;;;;;;;;;;;;;;;10297661;28;19953;-69
2023/01/23 04:35:39;;;;;;;;;;;;;;;;;;10300723;28;19964;-70
2023/01/23 04:40:37;;;;;;;;;;;;;;;;;;10291889;28;19960;-70
2023/01/23 04:45:35;;;;;;;;;;;;;;;;;;10300911;28;19967;-71
2023/01/23 04:50:39;;;;;;;;;;;;;;;;;;10292420;28;20397;-71
2023/01/23 04:55:38;;;;;;;;;;;;;;;;;;10291900;28;19960;-70
2023/01/23 05:00:38;;;;;;;;;;;;;;;;;;10290647;28;19968;-70
2023/01/23 05:05:36;;;;;;;;;;;;;;;;;;10292624;28;20480;-71
2023/01/23 05:10:34;;;;;;;;;;;;;;;;;;10297625;28;19975;-70
2023/01/23 05:15:36;;;;;;;;;;;;;;;;;;10291800;28;20350;-70
2023/01/23 05:20:34;;;;;;;;;;;;;;;;;;10285880;28;20348;-71
2023/01/23 05:25:34;;;;;;;;;;;;;;;;;;10273015;28;19964;-71
2023/01/23 05:30:33;;;;;;;;;;;;;;;;;;10286855;28;19976;-71
2023/01/23 05:35:45;;;;;;;;;;;;;;;;;;10284433;28;19968;-70
2023/01/23 05:40:43;;;;;;;;;;;;;;;;;;10284440;28;20584;-71
2023/01/23 05:45:43;;;;;;;;;;;;;;;;;;10268008;28;19959;-71
2023/01/23 05:50:51;;;;;;;;;;;;;;;;;;10250901;28;20413;-71
2023/01/23 05:55:50;;;;;;;;;;;;;;;;;;10270378;28;19963;-71
2023/01/23 06:00:49;;;;;;;;;;;;;;;;;;10297704;28;19988;-71
2023/01/23 06:06:06;;;;;;;;;;;;;;;;;;10267563;28;19955;-71
2023/01/23 06:11:04;;;;;;;;;;;;;;;;;;10266558;28;20454;-70
2023/01/23 06:16:02;;;;;;;;;;;;;;;;;;10281233;28;20019;-71
2023/01/23 06:20:59;;;;;;;;;;;;;;;;;;10297131;28;19921;-71
2023/01/23 06:25:58;;;;;;;;;;;;;;;;;;10299026;28;19928;-70
2023/01/23 06:30:56;;;;;;;;;;;;;;;;;;10301784;28;19959;-70
2023/01/23 06:36:04;;;;;;;;;;;;;;;;;;10296201;28;20534;-70
2023/01/23 06:41:02;;;;;;;;;;;;;;;;;;10282874;28;20381;-69
2023/01/23 06:46:04;;;;;;;;;;;;;;;;;;10285099;28;20369;-71
2023/01/23 06:51:02;;;;;;;;;;;;;;;;;;10297711;28;19960;-71
2023/01/23 06:56:00;;;;;;;;;;;;;;;;;;10289225;28;19963;-71
2023/01/23 07:01:01;;;;;;;;;;;;;;;;;;10282369;28;19956;-70
2023/01/23 07:06:25;;;;;;;;;;;;;;;;;;10281058;28;19967;-70
2023/01/23 07:11:23;;;;;;;;;;;;;;;;;;10281727;28;19960;-71
2023/01/23 07:16:21;;;;;;;;;;;;;;;;;;10297000;28;19970;-70
2023/01/23 07:21:19;;;;;;;;;;;;;;;;;;10301757;28;19971;-71
2023/01/23 07:26:17;;;;;;;;;;;;;;;;;;10296059;28;19959;-70
2023/01/23 07:31:15;;;;;;;;;;;;;;;;;;10288183;28;19948;-71
2023/01/23 07:36:13;;;;;;;;;;;;;;;;;;10291181;28;19964;-71
2023/01/23 07:41:11;;;;;;;;;;;;;;;;;;10273003;28;20408;-71
2023/01/23 07:46:09;;;;;;;;;;;;;;;;;;10276008;28;19959;-70
2023/01/23 07:51:07;;;;;;;;;;;;;;;;;;10282020;28;19960;-71
2023/01/23 07:56:05;;;;;;;;;;;;;;;;;;10286137;28;19971;-70
2023/01/23 08:01:03;;;;;;;;;;;;;;;;;;10282213;28;19956;-71
2023/01/23 08:06:01;;;;;;;;;;;;;;;;;;10274626;28;20005;-71
2023/01/23 08:10:59;;;;;;;;;;;;;;;;;;10275370;28;19959;-70
2023/01/23 08:15:57;;;;;;;;;;;;;;;;;;10270353;28;19963;-70
2023/01/23 08:20:55;;;;;;;;;;;;;;;;;;10269774;28;19959;-70
2023/01/23 08:25:52;;;;;;;;;;;;;;;;;;10269537;28;20353;-69
2023/01/23 08:30:50;;;;;;;;;;;;;;;;;;10269229;28;19952;-71
2023/01/23 08:35:48;;;;;;;;;;;;;;;;;;10269625;28;19972;-71
2023/01/23 08:40:46;;;;;;;;;;;;;;;;;;10275782;28;19962;-71
2023/01/23 08:45:44;;;;;;;;;;;;;;;;;;10277349;28;19955;-70
2023/01/23 08:50:42;;;;;;;;;;;;;;;;;;10279375;28;19952;-71
2023/01/23 08:55:40;;;;;;;;;;;;;;;;;;10294171;28;19960;-71
2023/01/23 09:00:38;;;;;;;;;;;;;;;;;;10294898;28;19955;-71
2023/01/23 09:05:39;;;;;;;;;;;;;;;;;;10279309;28;19967;-71
2023/01/23 09:10:36;;;;;;;;;;;;;;;;;;10282345;28;19986;-71
2023/01/23 09:15:34;;;;;;;;;;;;;;;;;;10286701;28;19960;-71
2023/01/23 09:20:32;;;;;;;;;;;;;;;;;;10290545;28;19962;-71
2023/01/23 09:25:30;;;;;;;;;;;;;;;;;;10290255;28;19956;-71
2023/01/23 09:30:28;;;;;;;;;;;;;;;;;;10291385;28;20440;-71
2023/01/23 09:35:26;;;;;;;;;;;;;;;;;;10289124;28;19958;-71
2023/01/23 09:40:24;;;;;;;;;;;;;;;;;;10291925;28;19959;-70
2023/01/23 09:45:22;;;;;;;;;;;;;;;;;;10290852;28;19955;-70
2023/01/23 09:50:20;;;;;;;;;;;;;;;;;;10291159;28;19982;-71
2023/01/23 09:55:18;;;;;;;;;;;;;;;;;;10292387;28;19966;-70
2023/01/23 10:00:16;;;;;;;;;;;;;;;;;;10291069;28;19966;-71
2023/01/23 10:05:14;;;;;;;;;;;;;;;;;;10291829;28;19959;-70
2023/01/23 10:10:12;;;;;;;;;;;;;;;;;;10272898;28;19921;-70
2023/01/23 10:15:10;;;;;;;;;;;;;;;;;;10291535;28;19956;-71
2023/01/23 10:20:08;;;;;;;;;;;;;;;;;;10292413;28;19963;-71
2023/01/23 10:25:06;;;;;;;;;;;;;;;;;;10290104;28;19960;-71
2023/01/23 10:30:03;;;;;;;;;;;;;;;;;;10299268;28;19951;-70
2023/01/23 10:35:01;;;;;;;;;;;;;;;;;;10300191;28;20393;-71
2023/01/23 10:39:59;;;;;;;;;;;;;;;;;;10299481;28;19963;-71
2023/01/23 10:44:57;;;;;;;;;;;;;;;;;;10297804;28;19959;-70
2023/01/23 10:49:55;;;;;;;;;;;;;;;;;;10296395;28;20205;-71
2023/01/23 10:54:53;;;;;;;;;;;;;;;;;;10299590;28;19948;-69
2023/01/23 10:59:51;;;;;;;;;;;;;;;;;;10299101;28;19967;-70
2023/01/23 11:04:50;;;;;;;;;;;;;;;;;;10299667;28;19971;-70
2023/01/23 11:09:48;;;;;;;;;;;;;;;;;;10299550;28;19968;-70
2023/01/23 11:14:46;;;;;;;;;;;;;;;;;;10296654;28;19966;-69
2023/01/23 11:19:44;;;;;;;;;;;;;;;;;;10299575;28;19976;-71
2023/01/23 11:24:42;;;;;;;;;;;;;;;;;;10292167;28;19967;-71
2023/01/23 11:29:39;;;;;;;;;;;;;;;;;;10296048;28;19951;-70
2023/01/23 11:34:37;;;;;;;;;;;;;;;;;;10297778;28;20365;-70
2023/01/23 11:39:35;;;;;;;;;;;;;;;;;;10295614;28;19959;-71
2023/01/23 11:44:33;;;;;;;;;;;;;;;;;;10296127;28;19956;-70
2023/01/23 11:49:42;;;;;;;;;;;;;;;;;;10295248;28;20039;-72
2023/01/23 11:54:40;;;;;;;;;;;;;;;;;;10295495;28;19966;-71
2023/01/23 11:59:37;;;;;;;;;;;;;;;;;;10297463;28;19970;-71
2023/01/23 12:04:35;;;;;;;;;;;;;;;;;;10297329;28;19959;-69
2023/01/23 12:09:33;;;;;;;;;;;;;;;;;;10295875;28;20416;-70
2023/01/23 12:14:31;;;;;;;;;;;;;;;;;;10296734;28;19964;-70
2023/01/23 12:19:29;;;;;;;;;;;;;;;;;;10295847;28;20593;-70
2023/01/23 12:24:27;;;;;;;;;;;;;;;;;;10293950;28;19963;-71
2023/01/23 12:29:25;;;;;;;;;;;;;;;;;;10292664;28;19969;-71
2023/01/23 12:34:23;;;;;;;;;;;;;;;;;;10302120;28;19920;-70
2023/01/23 12:39:20;;;;;;;;;;;;;;;;;;10296769;28;19992;-69
2023/01/23 12:44:18;;;;;;;;;;;;;;;;;;10294986;28;19956;-70
2023/01/23 12:49:16;;;;;;;;;;;;;;;;;;10294075;28;19955;-70
2023/01/23 12:54:15;;;;;;;;;;;;;;;;;;10295649;28;19954;-69
2023/01/23 12:59:14;;;;;;;;;;;;;;;;;;10293037;28;20394;-70
2023/01/23 13:04:11;;;;;;;;;;;;;;;;;;10293056;28;19956;-70
2023/01/23 13:09:09;;;;;;;;;;;;;;;;;;10294118;28;19962;-70
2023/01/23 13:14:14;;;;;;;;;;;;;;;;;;10291900;28;19972;-69
2023/01/23 13:29:43;;;;;;;;;;;;;;;;;;10292977;28;19966;-69
2023/01/23 13:34:41;;;;;;;;;;;;;;;;;;10293411;28;19955;-69
2023/01/23 13:39:39;;;;;;;;;;;;;;;;;;10293176;28;19972;-69
2023/01/23 13:44:40;;;;;;;;;;;;;;;;;;10289240;28;19964;-70
2023/01/23 13:49:54;;;;;;;;;;;;;;;;;;10292828;28;20011;-70
2023/01/23 14:00:34;;;;;;;;;;;;;;;;;;9953346;29;19966;-70
2023/01/23 14:05:46;;;;;;;;;;;;;;;;;;9803751;29;20012;-69
2023/01/23 14:10:57;;;;;;;;;;;;;;;;;;9729430;30;19953;-71
2023/01/23 14:16:09;;;;;;;;;;;;;;;;;;9699192;29;20004;-69
2023/01/23 14:21:21;;;;;;;;;;;;;;;;;;9784830;29;19960;-69
2023/01/23 14:26:24;;;;;;;;;;;;;;;;;;9839791;29;19971;-69
2023/01/23 14:31:22;;;;;;;;;;;;;;;;;;9914097;29;19982;-71
2023/01/23 14:36:20;;;;;;;;;;;;;;;;;;10022767;29;19961;-72
2023/01/23 14:41:18;;;;;;;;;;;;;;;;;;10153396;28;20040;-71
2023/01/23 14:46:21;;;;;;;;;;;;;;;;;;10271578;28;19960;-70
2023/01/23 14:51:19;;;;;;;;;;;;;;;;;;10291267;28;19972;-69
2023/01/23 14:56:17;;;;;;;;;;;;;;;;;;10290682;28;20358;-68
2023/01/23 15:01:15;;;;;;;;;;;;;;;;;;10290842;28;19964;-70
2023/01/23 15:06:13;;;;;;;;;;;;;;;;;;10287326;28;19971;-70
2023/01/23 15:11:12;;;;;;;;;;;;;;;;;;10296356;28;19964;-70
2023/01/23 15:16:10;;;;;;;;;;;;;;;;;;10294661;28;19990;-69
2023/01/23 15:21:07;;;;;;;;;;;;;;;;;;10296395;28;20361;-70
2023/01/23 15:26:05;;;;;;;;;;;;;;;;;;10298180;28;19978;-70
2023/01/23 15:31:03;;;;;;;;;;;;;;;;;;10296853;28;19963;-71
2023/01/23 15:36:01;;;;;;;;;;;;;;;;;;10299132;28;19925;-70
2023/01/23 15:40:59;;;;;;;;;;;;;;;;;;10294659;28;19972;-70
2023/01/23 15:45:58;;;;;;;;;;;;;;;;;;10296461;28;19963;-69
2023/01/23 15:50:57;;;;;;;;;;;;;;;;;;10296450;28;19987;-71
2023/01/23 15:55:55;;;;;;;;;;;;;;;;;;10294438;28;20398;-70
2023/01/23 16:00:53;;;;;;;;;;;;;;;;;;10296198;28;19963;-70
2023/01/23 16:05:51;;;;;;;;;;;;;;;;;;10296224;28;19963;-70
2023/01/23 16:10:49;;;;;;;;;;;;;;;;;;10296115;28;19948;-70
2023/01/23 16:15:47;;;;;;;;;;;;;;;;;;10294725;28;20027;-71
2023/01/23 16:20:45;;;;;;;;;;;;;;;;;;10291409;28;20362;-70
2023/01/23 16:25:43;;;;;;;;;;;;;;;;;;10291716;28;19979;-70
2023/01/23 16:30:43;;;;;;;;;;;;;;;;;;10292902;28;19959;-69
2023/01/23 16:35:41;;;;;;;;;;;;;;;;;;10294853;28;20201;-70
2023/01/23 16:40:38;;;;;;;;;;;;;;;;;;10296359;28;19956;-70
2023/01/23 16:45:36;;;;;;;;;;;;;;;;;;10293373;28;19963;-71
2023/01/23 16:50:34;;;;;;;;;;;;;;;;;;10294082;28;19959;-71
2023/01/23 16:55:32;;;;;;;;;;;;;;;;;;10294323;28;19960;-71
2023/01/23 17:00:30;;;;;;;;;;;;;;;;;;10291289;28;19952;-70
2023/01/23 17:05:32;;;;;;;;;;;;;;;;;;10290845;28;19967;-71
2023/01/23 17:10:29;;;;;;;;;;;;;;;;;;10292170;28;20349;-70
2023/01/23 17:15:42;;;;;;;;;;;;;;;;;;10293630;28;20338;-71
2023/01/23 17:20:40;;;;;;;;;;;;;;;;;;10289875;28;19968;-71
2023/01/23 17:25:39;;;;;;;;;;;;;;;;;;10292624;28;19956;-71
2023/01/23 17:30:51;;;;;;;;;;;;;;;;;;10291644;28;19974;-70
2023/01/23 17:35:49;;;;;;;;;;;;;;;;;;10291398;28;19970;-70
2023/01/23 17:40:46;;;;;;;;;;;;;;;;;;10291597;28;19963;-70
2023/01/23 17:45:44;;;;;;;;;;;;;;;;;;10289872;28;19994;-71
2023/01/23 17:50:44;;;;;;;;;;;;;;;;;;10288786;28;20394;-70
2023/01/23 17:55:45;;;;;;;;;;;;;;;;;;10266926;28;19960;-70
2023/01/23 18:00:43;;;;;;;;;;;;;;;;;;10259007;28;19956;-70
2023/01/23 18:05:41;;;;;;;;;;;;;;;;;;10256939;28;19970;-69
2023/01/23 18:10:39;;;;;;;;;;;;;;;;;;10260576;28;19967;-70
2023/01/23 18:15:37;;;;;;;;;;;;;;;;;;10290986;28;19972;-70
2023/01/23 18:20:35;;;;;;;;;;;;;;;;;;10285158;28;19968;-70
2023/01/23 18:25:34;;;;;;;;;;;;;;;;;;10275596;28;19960;-70
2023/01/23 18:30:32;;;;;;;;;;;;;;;;;;10289444;28;19927;-70
2023/01/23 18:35:31;;;;;;;;;;;;;;;;;;10281755;28;19975;-71
2023/01/23 18:40:30;;;;;;;;;;;;;;;;;;10255981;28;19964;-69
2023/01/23 18:45:29;;;;;;;;;;;;;;;;;;10277098;28;19976;-70
2023/01/23 18:50:28;;;;;;;;;;;;;;;;;;10270005;28;19979;-73
2023/01/23 18:55:27;;;;;;;;;;;;;;;;;;10272769;28;20385;-69
2023/01/23 19:00:26;;;;;;;;;;;;;;;;;;10284435;28;20385;-70
2023/01/23 19:05:26;;;;;;;;;;;;;;;;;;10273127;28;19959;-70
2023/01/23 19:10:25;;;;;;;;;;;;;;;;;;10280676;28;19948;-71
2023/01/23 19:15:24;;;;;;;;;;;;;;;;;;10265429;28;19956;-70
2023/01/23 19:20:23;;;;;;;;;;;;;;;;;;10270432;28;19967;-70
2023/01/23 19:25:22;;;;;;;;;;;;;;;;;;10270841;28;20173;-70
2023/01/23 19:30:20;;;;;;;;;;;;;;;;;;10282688;28;20358;-69
2023/01/23 19:35:20;;;;;;;;;;;;;;;;;;10280983;28;20032;-70
2023/01/23 19:40:18;;;;;;;;;;;;;;;;;;10272917;28;19948;-68
2023/01/23 19:45:16;;;;;;;;;;;;;;;;;;10277372;28;20397;-71
2023/01/23 19:50:16;;;;;;;;;;;;;;;;;;10276883;28;20317;-69
2023/01/23 19:55:14;;;;;;;;;;;;;;;;;;10272873;28;19959;-69
2023/01/23 20:00:13;;;;;;;;;;;;;;;;;;10283768;28;20037;-70
2023/01/23 20:05:13;;;;;;;;;;;;;;;;;;10278294;28;19956;-70
2023/01/23 20:10:11;;;;;;;;;;;;;;;;;;10273158;28;19964;-72
2023/01/23 20:15:09;;;;;;;;;;;;;;;;;;10286902;28;19970;-71
2023/01/23 20:20:08;;;;;;;;;;;;;;;;;;10283670;28;19964;-69
2023/01/23 20:25:07;;;;;;;;;;;;;;;;;;10283152;28;19963;-71
2023/01/23 20:30:05;;;;;;;;;;;;;;;;;;10289308;28;19956;-70
2023/01/23 20:35:04;;;;;;;;;;;;;;;;;;10294101;28;19921;-70
2023/01/23 20:40:02;;;;;;;;;;;;;;;;;;10291813;28;20345;-70
2023/01/23 20:45:00;;;;;;;;;;;;;;;;;;10277831;28;19960;-71
2023/01/23 20:49:58;;;;;;;;;;;;;;;;;;10267466;28;19952;-70
2023/01/23 20:54:56;;;;;;;;;;;;;;;;;;10277504;28;20566;-71
2023/01/23 20:59:54;;;;;;;;;;;;;;;;;;10293182;28;20381;-71
2023/01/23 21:04:52;;;;;;;;;;;;;;;;;;10285768;28;19975;-70
2023/01/23 21:09:50;;;;;;;;;;;;;;;;;;10271773;28;20382;-71
2023/01/23 21:14:48;;;;;;;;;;;;;;;;;;10256663;28;19971;-71
2023/01/23 21:19:46;;;;;;;;;;;;;;;;;;10264865;28;19960;-70
2023/01/23 21:24:44;;;;;;;;;;;;;;;;;;10268527;28;19963;-71
2023/01/23 21:29:42;;;;;;;;;;;;;;;;;;10266403;28;19960;-70
2023/01/23 21:34:40;;;;;;;;;;;;;;;;;;10272355;28;19959;-71
2023/01/23 21:39:38;;;;;;;;;;;;;;;;;;10272541;28;19952;-71
2023/01/23 21:44:36;;;;;;;;;;;;;;;;;;10275014;28;19983;-71
2023/01/23 21:49:33;;;;;;;;;;;;;;;;;;10275514;28;20347;-71
2023/01/23 21:54:31;;;;;;;;;;;;;;;;;;10269802;28;20002;-71
2023/01/23 21:59:29;;;;;;;;;;;;;;;;;;10272109;28;19964;-70
2023/01/23 22:04:28;;;;;;;;;;;;;;;;;;10268964;28;20359;-70
2023/01/23 22:09:25;;;;;;;;;;;;;;;;;;10271875;28;20386;-71
2023/01/23 22:14:23;;;;;;;;;;;;;;;;;;10274802;28;19960;-70
2023/01/23 22:19:21;;;;;;;;;;;;;;;;;;10292138;28;19963;-71
2023/01/23 22:24:22;;;;;;;;;;;;;;;;;;10292507;28;19979;-70
2023/01/23 22:29:21;;;;;;;;;;;;;;;;;;10280026;28;19962;-71
2023/01/23 22:34:19;;;;;;;;;;;;;;;;;;10286661;28;19956;-71
2023/01/23 22:39:18;;;;;;;;;;;;;;;;;;10287415;28;19948;-71
2023/01/23 22:44:16;;;;;;;;;;;;;;;;;;10289105;28;20492;-71
2023/01/23 22:49:14;;;;;;;;;;;;;;;;;;10287595;28;19956;-70
2023/01/23 22:54:12;;;;;;;;;;;;;;;;;;10284917;28;19956;-70
2023/01/23 22:59:10;;;;;;;;;;;;;;;;;;10294508;28;19948;-71
2023/01/23 23:04:08;;;;;;;;;;;;;;;;;;10290398;28;19959;-70
2023/01/23 23:09:06;;;;;;;;;;;;;;;;;;10291201;28;20495;-69
2023/01/23 23:14:04;;;;;;;;;;;;;;;;;;10289875;28;20415;-70
2023/01/23 23:19:01;;;;;;;;;;;;;;;;;;10290742;28;20001;-71
2023/01/23 23:23:59;;;;;;;;;;;;;;;;;;10289752;28;19955;-70
2023/01/23 23:28:57;;;;;;;;;;;;;;;;;;10291081;28;19951;-71
2023/01/23 23:33:55;;;;;;;;;;;;;;;;;;10291502;28;20054;-70
2023/01/23 23:38:53;;;;;;;;;;;;;;;;;;10296935;28;19948;-70
2023/01/23 23:43:51;;;;;;;;;;;;;;;;;;10295394;28;20416;-70
2023/01/23 23:48:49;;;;;;;;;;;;;;;;;;10297674;28;20394;-71
2023/01/23 23:53:47;;;;;;;;;;;;;;;;;;10296735;28;19970;-70
2023/01/23 23:58:44;;;;;;;;;;;;;;;;;;10296624;28;19967;-70
